createdAt,value
2019-06-01T00:00:55.884Z,99.90
2019-06-01T00:03:29.888Z,99.90
2019-06-01T00:06:03.565Z,99.90
2019-06-01T00:08:39.769Z,99.90
2019-06-01T00:11:13.371Z,99.90
2019-06-01T00:13:47.685Z,99.90
2019-06-01T00:16:20.734Z,99.90
2019-06-01T00:18:53.825Z,99.90
2019-06-01T00:21:26.739Z,99.90
2019-06-01T00:24:01.289Z,99.90
2019-06-01T00:26:35.216Z,99.90
2019-06-01T00:29:08.665Z,99.90
2019-06-01T00:31:43.076Z,99.90
2019-06-01T00:34:16.589Z,99.90
2019-06-01T00:36:51.929Z,99.90
2019-06-01T00:39:27.043Z,99.90
2019-06-01T00:42:00.570Z,99.90
2019-06-01T00:44:33.781Z,99.90
2019-06-01T00:47:07.131Z,99.90
2019-06-01T00:49:40.907Z,99.90
2019-06-01T00:52:14.201Z,99.90
2019-06-01T00:54:51.714Z,99.90
2019-06-01T00:57:25.864Z,99.90
2019-06-01T00:59:59.104Z,99.90
2019-06-01T01:02:32.765Z,99.90
2019-06-01T01:05:17.136Z,99.90
2019-06-01T01:07:51.605Z,99.90
2019-06-01T01:10:25.585Z,99.90
2019-06-01T01:13:26.100Z,99.90
2019-06-01T01:15:59.808Z,99.90
2019-06-01T01:18:33.690Z,99.90
2019-06-01T01:21:07.145Z,99.90
2019-06-01T01:23:40.208Z,99.90
2019-06-01T01:26:12.409Z,99.90
2019-06-01T01:28:46.685Z,99.90
2019-06-01T01:31:20.364Z,99.90
2019-06-01T01:33:53.993Z,99.90
2019-06-01T01:36:27.571Z,99.90
2019-06-01T01:39:01.147Z,99.90
2019-06-01T01:41:36.214Z,99.90
2019-06-01T01:44:09.892Z,99.90
2019-06-01T01:46:43.780Z,99.90
2019-06-01T01:49:19.316Z,99.90
2019-06-01T01:51:55.449Z,99.90
2019-06-01T01:54:29.816Z,99.90
2019-06-01T01:57:03.337Z,99.90
2019-06-01T01:59:37.319Z,99.90
2019-06-01T02:02:11.289Z,99.90
2019-06-01T02:04:44.677Z,99.90
2019-06-01T02:07:18.143Z,99.90
2019-06-01T02:09:53.028Z,99.90
2019-06-01T02:12:26.929Z,99.90
2019-06-01T02:14:59.780Z,99.90
2019-06-01T02:17:33.374Z,99.90
2019-06-01T02:20:07.885Z,99.90
2019-06-01T02:22:41.413Z,99.90
2019-06-01T02:25:15.301Z,99.90
2019-06-01T02:27:53.153Z,99.90
2019-06-01T02:30:26.671Z,99.90
2019-06-01T02:33:02.217Z,99.90
2019-06-01T02:35:35.291Z,99.90
2019-06-01T02:38:08.318Z,99.90
2019-06-01T02:40:44.041Z,99.90
2019-06-01T02:43:18.152Z,99.90
2019-06-01T02:45:52.356Z,99.90
2019-06-01T02:48:25.992Z,99.90
2019-06-01T02:50:59.944Z,99.90
2019-06-01T02:53:34.548Z,99.90
2019-06-01T02:56:08.177Z,99.90
2019-06-01T02:58:40.951Z,99.90
2019-06-01T03:01:34.792Z,99.90
2019-06-01T03:04:10.049Z,99.90
2019-06-01T03:06:45.569Z,99.90
2019-06-01T03:09:21.315Z,99.90
2019-06-01T03:11:59.350Z,99.90
2019-06-01T03:14:35.122Z,99.90
2019-06-01T03:17:12.219Z,99.90
2019-06-01T03:19:49.517Z,99.90
2019-06-01T03:22:24.327Z,99.90
2019-06-01T03:24:59.800Z,99.90
2019-06-01T03:27:38.709Z,99.90
2019-06-01T03:30:15.670Z,99.90
2019-06-01T03:32:49.899Z,99.90
2019-06-01T03:35:22.831Z,99.90
2019-06-01T03:37:56.155Z,99.90
2019-06-01T03:40:28.945Z,99.90
2019-06-01T03:43:02.374Z,99.90
2019-06-01T03:45:36.186Z,99.90
2019-06-01T03:48:09.829Z,99.90
2019-06-01T03:50:43.283Z,99.90
2019-06-01T03:53:18.077Z,99.90
2019-06-01T03:55:52.018Z,99.90
2019-06-01T03:58:25.518Z,99.90
2019-06-01T04:00:59.015Z,99.90
2019-06-01T04:03:31.786Z,99.90
2019-06-01T04:06:05.323Z,99.90
2019-06-01T04:08:38.887Z,99.90
2019-06-01T04:11:13.455Z,99.90
2019-06-01T04:13:47.117Z,99.90
2019-06-01T04:16:23.964Z,99.90
2019-06-01T04:18:58.304Z,99.90
2019-06-01T04:21:32.207Z,99.90
2019-06-01T04:24:06.013Z,99.90
2019-06-01T04:26:39.412Z,99.90
2019-06-01T04:29:13.105Z,99.90
2019-06-01T04:31:45.835Z,99.90
2019-06-01T04:34:18.719Z,99.90
2019-06-01T04:36:51.569Z,99.90
2019-06-01T04:39:24.824Z,99.90
2019-06-01T04:42:01.166Z,99.90
2019-06-01T04:44:34.787Z,99.90
2019-06-01T04:47:09.241Z,99.90
2019-06-01T04:49:43.527Z,99.90
2019-06-01T04:52:16.998Z,99.90
2019-06-01T04:54:50.925Z,99.90
2019-06-01T04:57:24.349Z,99.90
2019-06-01T04:59:57.173Z,99.90
2019-06-01T05:02:31.331Z,99.90
2019-06-01T05:05:05.057Z,99.90
2019-06-01T05:07:38.745Z,99.90
2019-06-01T05:10:14.332Z,99.90
2019-06-01T05:12:47.889Z,99.90
2019-06-01T05:15:21.661Z,99.90
2019-06-01T05:17:56.275Z,99.90
2019-06-01T05:20:29.579Z,99.90
2019-06-01T05:23:02.989Z,99.90
2019-06-01T05:25:36.744Z,99.90
2019-06-01T05:28:11.195Z,99.90
2019-06-01T05:30:45.073Z,99.90
2019-06-01T05:33:33.265Z,99.90
2019-06-01T05:35:54.321Z,99.90
2019-06-01T05:38:28.477Z,99.90
2019-06-01T05:41:01.645Z,99.90
2019-06-01T05:43:35.062Z,99.90
2019-06-01T05:46:08.063Z,99.90
2019-06-01T05:48:41.375Z,99.90
2019-06-01T05:51:16.890Z,99.90
2019-06-01T05:53:50.378Z,99.90
2019-06-01T05:56:24.333Z,99.90
2019-06-01T05:58:59.115Z,99.90
2019-06-01T06:01:33.237Z,99.90
2019-06-01T06:04:07.383Z,99.90
2019-06-01T06:06:41.011Z,99.90
2019-06-01T06:09:14.817Z,99.90
2019-06-01T06:11:48.294Z,99.90
2019-06-01T06:14:23.022Z,99.90
2019-06-01T06:16:57.566Z,99.90
2019-06-01T06:19:31.371Z,99.90
2019-06-01T06:22:05.677Z,99.90
2019-06-01T06:24:39.619Z,99.90
2019-06-01T06:27:14.394Z,99.90
2019-06-01T06:29:48.856Z,99.70
2019-06-01T06:32:24.519Z,99.70
2019-06-01T06:34:59.221Z,99.90
2019-06-01T06:37:32.407Z,99.90
2019-06-01T06:40:06.804Z,99.90
2019-06-01T06:42:41.770Z,99.90
2019-06-01T06:45:16.545Z,99.90
2019-06-01T06:47:52.442Z,99.90
2019-06-01T06:50:25.841Z,99.70
2019-06-01T06:53:29.661Z,99.50
2019-06-01T06:56:00.833Z,99.80
2019-06-01T06:58:36.665Z,99.50
2019-06-01T07:01:16.762Z,99.70
2019-06-01T07:04:12.202Z,99.70
2019-06-01T07:06:41.939Z,99.80
2019-06-01T07:09:16.097Z,99.90
2019-06-01T07:11:51.677Z,99.80
2019-06-01T07:14:25.469Z,99.80
2019-06-01T07:17:07.094Z,99.90
2019-06-01T07:19:41.381Z,99.90
2019-06-01T07:22:17.171Z,99.90
2019-06-01T07:24:52.734Z,99.90
2019-06-01T07:27:30.698Z,99.90
2019-06-01T07:30:05.039Z,99.60
2019-06-01T07:32:42.498Z,99.40
2019-06-01T07:35:16.681Z,99.70
2019-06-01T07:41:48.777Z,99.30
2019-06-01T07:44:34.199Z,99.00
2019-06-01T07:47:16.483Z,98.80
2019-06-01T07:53:49.520Z,99.30
2019-06-01T07:56:24.341Z,98.70
2019-06-01T07:58:58.498Z,98.90
2019-06-01T08:01:34.123Z,98.80
2019-06-01T08:04:15.692Z,98.50
2019-06-01T08:06:49.460Z,98.30
2019-06-01T08:09:24.529Z,98.10
2019-06-01T08:12:01.523Z,98.20
2019-06-01T08:14:35.573Z,98.10
2019-06-01T08:17:09.462Z,97.80
2019-06-01T08:19:46.114Z,97.60
2019-06-01T08:22:30.050Z,97.50
2019-06-01T08:25:26.543Z,97.10
2019-06-01T08:28:00.825Z,96.60
2019-06-01T08:31:12.338Z,96.70
2019-06-01T08:33:46.721Z,97.30
2019-06-01T08:36:21.103Z,97.00
2019-06-01T08:38:54.423Z,96.90
2019-06-01T08:45:16.187Z,97.00
2019-06-01T08:47:49.857Z,97.00
2019-06-01T08:50:37.740Z,96.80
2019-06-01T08:53:16.689Z,97.00
2019-06-01T08:55:49.216Z,96.80
2019-06-01T08:58:49.588Z,96.80
2019-06-01T09:01:50.566Z,96.50
2019-06-01T09:04:28.824Z,96.60
2019-06-01T09:07:02.729Z,96.50
2019-06-01T09:10:16.049Z,96.70
2019-06-01T09:13:14.810Z,96.60
2019-06-01T09:16:50.310Z,96.60
2019-06-01T09:26:57.586Z,96.70
2019-06-01T09:29:32.124Z,97.00
2019-06-01T09:32:10.456Z,97.00
2019-06-01T09:34:50.568Z,96.10
2019-06-01T09:38:20.604Z,96.60
2019-06-01T09:40:55.007Z,96.80
2019-06-01T09:43:37.191Z,97.10
2019-06-01T09:53:47.976Z,96.80
2019-06-01T09:57:32.147Z,96.80
2019-06-01T10:07:47.161Z,96.70
2019-06-01T10:10:21.165Z,96.30
2019-06-01T10:13:07.978Z,96.00
2019-06-01T10:15:50.275Z,96.40
2019-06-01T10:18:26.908Z,96.20
2019-06-01T10:21:07.834Z,95.80
2019-06-01T10:23:42.762Z,95.70
2019-06-01T10:26:23.127Z,95.80
2019-06-01T10:28:59.677Z,96.10
2019-06-01T10:31:39.664Z,95.50
2019-06-01T10:34:10.552Z,95.40
2019-06-01T10:37:35.585Z,96.20
2019-06-01T10:40:11.056Z,96.00
2019-06-01T10:42:45.236Z,96.40
2019-06-01T10:45:19.985Z,96.50
2019-06-01T10:48:07.161Z,96.60
2019-06-01T10:50:49.037Z,96.50
2019-06-01T10:53:38.199Z,96.10
2019-06-01T10:56:13.110Z,95.80
2019-06-01T10:59:00.480Z,95.80
2019-06-01T11:01:34.661Z,96.10
2019-06-01T11:04:09.089Z,96.40
2019-06-01T11:06:48.819Z,96.30
2019-06-01T11:09:30.298Z,96.60
2019-06-01T11:12:21.313Z,96.90
2019-06-01T11:14:57.072Z,96.60
2019-06-01T11:17:45.641Z,96.90
2019-06-01T11:20:19.639Z,96.20
2019-06-01T11:22:52.859Z,95.90
2019-06-01T11:25:39.650Z,95.40
2019-06-01T11:28:25.653Z,95.50
2019-06-01T11:31:10.355Z,96.00
2019-06-01T11:33:51.274Z,96.10
2019-06-01T11:36:27.596Z,95.70
2019-06-01T11:39:01.944Z,94.90
2019-06-01T11:42:19.750Z,94.60
2019-06-01T11:44:54.439Z,94.70
2019-06-01T11:47:46.639Z,95.30
2019-06-01T11:50:29.206Z,95.30
2019-06-01T11:53:04.507Z,94.80
2019-06-01T11:56:02.208Z,94.80
2019-06-01T11:58:41.395Z,94.30
2019-06-01T12:05:11.711Z,94.70
2019-06-01T12:07:46.065Z,94.70
2019-06-01T12:10:38.982Z,93.90
2019-06-01T12:13:17.723Z,93.80
2019-06-01T12:15:54.512Z,93.70
2019-06-01T12:18:30.046Z,93.00
2019-06-01T12:21:10.826Z,93.60
2019-06-01T12:23:54.011Z,93.80
2019-06-01T12:26:28.577Z,93.90
2019-06-01T12:29:00.840Z,93.50
2019-06-01T12:31:37.670Z,93.20
2019-06-01T12:34:17.458Z,93.80
2019-06-01T12:36:49.634Z,93.90
2019-06-01T12:39:35.664Z,93.50
2019-06-01T12:42:12.536Z,93.50
2019-06-01T12:44:47.847Z,93.90
2019-06-01T12:47:33.834Z,94.30
2019-06-01T12:50:08.225Z,94.20
2019-06-01T12:52:44.431Z,94.20
2019-06-01T12:55:17.932Z,94.50
2019-06-01T12:57:52.704Z,95.10
2019-06-01T13:00:28.489Z,95.60
2019-06-01T13:03:41.171Z,95.90
2019-06-01T13:06:15.623Z,95.20
2019-06-01T13:08:49.663Z,95.10
2019-06-01T13:11:24.108Z,95.50
2019-06-01T13:13:58.023Z,95.30
2019-06-01T13:16:39.316Z,95.70
2019-06-01T13:19:20.523Z,95.70
2019-06-01T13:21:55.273Z,95.20
2019-06-01T13:24:29.510Z,95.10
2019-06-01T13:27:03.524Z,95.00
2019-06-01T13:29:36.697Z,94.90
2019-06-01T13:32:13.124Z,94.90
2019-06-01T13:34:53.628Z,95.20
2019-06-01T13:37:27.007Z,95.40
2019-06-01T13:40:00.573Z,95.60
2019-06-01T13:42:42.960Z,95.50
2019-06-01T13:45:16.426Z,95.00
2019-06-01T13:47:54.150Z,95.30
2019-06-01T13:50:28.097Z,95.60
2019-06-01T13:53:05.052Z,96.00
2019-06-01T13:55:40.001Z,95.90
2019-06-01T13:58:19.859Z,95.70
2019-06-01T14:01:00.289Z,95.70
2019-06-01T14:03:33.787Z,95.40
2019-06-01T14:06:09.785Z,95.30
2019-06-01T14:08:49.063Z,95.40
2019-06-01T14:11:23.494Z,95.40
2019-06-01T14:13:56.640Z,95.10
2019-06-01T14:16:30.624Z,95.00
2019-06-01T14:19:12.439Z,94.80
2019-06-01T14:21:47.749Z,94.90
2019-06-01T14:24:25.418Z,94.50
2019-06-01T14:27:01.687Z,93.90
2019-06-01T14:29:43.416Z,93.80
2019-06-01T14:32:16.288Z,93.40
2019-06-01T14:34:51.258Z,93.40
2019-06-01T14:37:27.651Z,93.00
2019-06-01T14:40:02.195Z,93.20
2019-06-01T14:42:37.027Z,93.20
2019-06-01T14:45:16.386Z,93.00
2019-06-01T14:47:51.364Z,93.10
2019-06-01T14:50:32.324Z,92.80
2019-06-01T14:53:06.285Z,92.70
2019-06-01T14:55:40.051Z,92.40
2019-06-01T14:58:13.491Z,92.60
2019-06-01T15:00:48.351Z,92.60
2019-06-01T15:03:48.115Z,93.10
2019-06-01T15:06:21.487Z,93.20
2019-06-01T15:09:10.915Z,93.20
2019-06-01T15:11:38.526Z,93.30
2019-06-01T15:14:19.823Z,93.00
2019-06-01T15:16:56.120Z,93.00
2019-06-01T15:19:36.666Z,93.70
2019-06-01T15:22:12.230Z,93.20
2019-06-01T15:24:56.456Z,93.10
2019-06-01T15:27:29.774Z,92.80
2019-06-01T15:30:07.902Z,92.60
2019-06-01T15:32:48.304Z,92.90
2019-06-01T15:35:25.917Z,93.10
2019-06-01T15:38:13.160Z,92.50
2019-06-01T15:40:47.646Z,92.70
2019-06-01T15:43:22.238Z,93.10
2019-06-01T15:46:04.022Z,92.90
2019-06-01T15:48:41.784Z,92.50
2019-06-01T15:51:20.633Z,91.80
2019-06-01T15:53:54.853Z,92.10
2019-06-01T15:56:33.922Z,92.20
2019-06-01T15:59:09.325Z,92.50
2019-06-01T16:01:47.737Z,92.40
2019-06-01T16:04:41.258Z,92.20
2019-06-01T16:07:15.441Z,91.90
2019-06-01T16:09:48.572Z,92.00
2019-06-01T16:12:22.844Z,91.90
2019-06-01T16:14:57.605Z,91.50
2019-06-01T16:17:32.540Z,91.60
2019-06-01T16:20:10.653Z,90.90
2019-06-01T16:22:50.475Z,91.00
2019-06-01T16:25:35.036Z,91.10
2019-06-01T16:28:09.457Z,91.30
2019-06-01T16:30:43.343Z,91.50
2019-06-01T16:33:18.581Z,91.70
2019-06-01T16:35:58.858Z,91.80
2019-06-01T16:38:33.334Z,91.70
2019-06-01T16:41:07.974Z,92.30
2019-06-01T16:43:41.828Z,92.80
2019-06-01T16:46:16.545Z,92.20
2019-06-01T16:48:55.349Z,92.70
2019-06-01T16:51:30.546Z,92.60
2019-06-01T16:54:04.249Z,92.90
2019-06-01T16:56:37.887Z,92.90
2019-06-01T16:59:11.748Z,93.10
2019-06-01T17:01:45.034Z,92.60
2019-06-01T17:04:19.749Z,92.70
2019-06-01T17:06:53.617Z,92.90
2019-06-01T17:09:27.698Z,92.60
2019-06-01T17:12:03.470Z,92.80
2019-06-01T17:14:37.294Z,92.80
2019-06-01T17:17:31.325Z,92.40
2019-06-01T17:20:05.664Z,93.80
2019-06-01T17:22:39.565Z,94.60
2019-06-01T17:25:14.373Z,95.30
2019-06-01T17:27:51.335Z,95.70
2019-06-01T17:30:31.383Z,96.10
2019-06-01T17:33:14.875Z,96.00
2019-06-01T17:35:48.566Z,96.30
2019-06-01T17:38:22.985Z,96.40
2019-06-01T17:40:58.023Z,96.50
2019-06-01T17:43:39.413Z,96.50
2019-06-01T17:46:14.879Z,96.60
2019-06-01T17:48:48.584Z,96.20
2019-06-01T17:51:23.190Z,96.50
2019-06-01T17:53:57.656Z,96.50
2019-06-01T17:56:32.913Z,96.40
2019-06-01T17:59:07.549Z,96.30
2019-06-01T18:01:42.555Z,96.40
2019-06-01T18:04:16.643Z,96.40
2019-06-01T18:06:51.033Z,96.50
2019-06-01T18:09:26.079Z,96.40
2019-06-01T18:11:59.875Z,96.50
2019-06-01T18:14:33.791Z,96.60
2019-06-01T18:17:08.171Z,96.60
2019-06-01T18:19:45.164Z,96.50
2019-06-01T18:22:19.983Z,96.90
2019-06-01T18:24:53.530Z,96.50
2019-06-01T18:27:28.334Z,96.50
2019-06-01T18:30:02.802Z,96.60
2019-06-01T18:32:36.938Z,96.50
2019-06-01T18:35:09.471Z,96.30
2019-06-01T18:37:49.560Z,96.30
2019-06-01T18:40:25.611Z,96.60
2019-06-01T18:43:18.402Z,96.70
2019-06-01T18:45:59.279Z,96.90
2019-06-01T18:48:33.813Z,96.90
2019-06-01T18:51:08.201Z,97.00
2019-06-01T18:53:42.148Z,97.10
2019-06-01T18:56:18.333Z,97.30
2019-06-01T18:58:55.917Z,97.40
2019-06-01T19:01:29.891Z,97.40
2019-06-01T19:04:03.561Z,97.40
2019-06-01T19:06:38.284Z,97.30
2019-06-01T19:09:15.763Z,97.50
2019-06-01T19:11:49.534Z,97.60
2019-06-01T19:14:23.124Z,97.80
2019-06-01T19:16:55.271Z,97.90
2019-06-01T19:19:28.749Z,98.00
2019-06-01T19:22:04.245Z,98.10
2019-06-01T19:24:37.676Z,98.20
2019-06-01T19:27:11.125Z,98.20
2019-06-01T19:29:44.865Z,98.30
2019-06-01T19:32:21.209Z,98.40
2019-06-01T19:34:55.319Z,98.50
2019-06-01T19:37:29.077Z,98.50
2019-06-01T19:40:04.159Z,98.30
2019-06-01T19:42:38.189Z,98.50
2019-06-01T19:45:27.103Z,98.60
2019-06-01T19:47:49.689Z,98.60
2019-06-01T19:50:23.727Z,98.50
2019-06-01T19:52:57.836Z,98.50
2019-06-01T19:55:31.864Z,98.50
2019-06-01T19:58:06.075Z,98.50
2019-06-01T20:00:39.829Z,98.50
2019-06-01T20:03:20.205Z,98.50
2019-06-01T20:05:52.548Z,98.50
2019-06-01T20:08:26.902Z,98.50
2019-06-01T20:11:01.555Z,98.60
2019-06-01T20:13:35.295Z,98.50
2019-06-01T20:16:10.556Z,98.60
2019-06-01T20:18:44.824Z,98.60
2019-06-01T20:21:18.798Z,98.70
2019-06-01T20:23:53.551Z,98.70
2019-06-01T20:26:39.669Z,98.80
2019-06-01T20:29:04.742Z,98.90
2019-06-01T20:31:38.720Z,98.90
2019-06-01T20:34:12.789Z,98.90
2019-06-01T20:36:53.087Z,99.00
2019-06-01T20:39:27.056Z,99.10
2019-06-01T20:42:17.269Z,99.10
2019-06-01T20:44:36.301Z,99.10
2019-06-01T20:47:10.229Z,99.20
2019-06-01T20:49:44.023Z,99.30
2019-06-01T20:52:19.017Z,99.30
2019-06-01T20:54:53.810Z,99.30
2019-06-01T20:57:27.432Z,99.20
2019-06-01T21:00:01.512Z,99.30
2019-06-01T21:02:35.766Z,99.40
2019-06-01T21:05:10.357Z,99.50
2019-06-01T21:07:44.629Z,99.40
2019-06-01T21:10:20.305Z,99.40
2019-06-01T21:12:55.380Z,99.70
2019-06-01T21:15:34.296Z,99.60
2019-06-01T21:18:09.231Z,99.70
2019-06-01T21:20:42.942Z,99.70
2019-06-01T21:23:16.618Z,99.70
2019-06-01T21:25:50.951Z,99.80
2019-06-01T21:28:25.780Z,99.50
2019-06-01T21:31:04.830Z,99.60
2019-06-01T21:33:39.048Z,99.60
2019-06-01T21:36:15.273Z,99.70
2019-06-01T21:38:49.683Z,99.70
2019-06-01T21:41:26.103Z,99.80
2019-06-01T21:44:02.051Z,99.80
2019-06-01T21:46:35.824Z,99.90
2019-06-01T21:49:09.295Z,99.90
2019-06-01T21:51:42.373Z,99.90
2019-06-01T21:54:20.055Z,99.90
2019-06-01T21:56:53.809Z,99.90
2019-06-01T21:59:27.601Z,99.90
2019-06-01T22:02:02.447Z,99.90
2019-06-01T22:04:36.439Z,99.90
2019-06-01T22:07:10.415Z,99.90
2019-06-01T22:09:43.552Z,99.90
2019-06-01T22:12:19.125Z,99.90
2019-06-01T22:14:53.610Z,99.90
2019-06-01T22:17:27.925Z,99.90
2019-06-01T22:20:01.695Z,99.90
2019-06-01T22:22:35.199Z,99.90
2019-06-01T22:25:09.059Z,99.90
2019-06-01T22:27:45.749Z,99.90
2019-06-01T22:30:20.304Z,99.90
2019-06-01T22:32:54.462Z,99.90
2019-06-01T22:35:28.809Z,99.90
2019-06-01T22:38:03.023Z,99.90
2019-06-01T22:40:36.623Z,99.90
2019-06-01T22:43:11.431Z,99.90
2019-06-01T22:45:45.275Z,99.90
2019-06-01T22:48:20.440Z,99.90
2019-06-01T22:50:54.817Z,99.90
2019-06-01T22:53:28.345Z,99.90
2019-06-01T22:56:01.870Z,99.90
2019-06-01T22:58:38.846Z,99.90
2019-06-01T23:01:12.784Z,99.90
2019-06-01T23:03:46.735Z,99.90
2019-06-01T23:06:20.955Z,99.90
2019-06-01T23:08:54.803Z,99.90
2019-06-01T23:11:29.602Z,99.90
2019-06-01T23:14:04.075Z,99.90
2019-06-01T23:16:37.819Z,99.90
2019-06-01T23:19:10.902Z,99.90
2019-06-01T23:21:47.222Z,99.90
2019-06-01T23:24:21.644Z,99.90
2019-06-01T23:26:56.670Z,99.90
2019-06-01T23:29:32.859Z,99.90
2019-06-01T23:32:06.625Z,99.90
2019-06-01T23:34:39.961Z,99.90
2019-06-01T23:37:13.343Z,99.90
2019-06-01T23:39:46.463Z,99.90
2019-06-01T23:42:19.747Z,99.90
2019-06-01T23:44:53.506Z,99.90
2019-06-01T23:47:27.461Z,99.90
2019-06-01T23:50:00.693Z,99.90
2019-06-01T23:52:34.817Z,99.90
2019-06-01T23:55:10.357Z,99.90
2019-06-01T23:57:45.300Z,99.90
